• Join FlightAware (Why Join?)
  • Login
  • US Flag 
05:08PM EDT


 

Airport Tracker/Info


-or-


 

Live Flight TrackerFlight Track Log ✈ TRS147 ✈ 25-May-2013 ✈ KATL - KSAT

Flight Track Log - Related Links

Times and Time Zones

All times are in EDT time to prevent confusion due to time zone crossing. See the TRS147 flight status page for this flight to view local times or setup timezone preferences in your user account.

Time Position Orientation Groundspeed Altitude Reporting Facility
EDT Latitude Longitude Course Direction KTS MPH feet Rate Location/Type
10:51PM 33.6500 -84.4667 287° West 164 189 2,300  Level Atlanta TRACON
10:52PM 33.6667 -84.5333 287° West 239 275 4,600 2,700 Climbing Atlanta TRACON
10:54PM 33.6336 -84.7425 259° West 304 350 11,400 2,820 Climbing Atlanta Center
10:55PM 33.6036 -84.8594 253° West 346 398 14,200 2,820 Climbing Atlanta Center
10:56PM 33.5694 -84.9936 253° West 375 432 17,100 2,640 Climbing Atlanta Center
10:57PM 33.5350 -85.1203 252° West 398 458 19,500 2,520 Climbing Atlanta Center
10:58PM 33.5022 -85.2519 253° West 409 471 22,200 2,400 Climbing Atlanta Center
10:59PM 33.4633 -85.3836 251° West 416 479 24,400 2,100 Climbing Atlanta Center
11:00PM 33.4264 -85.5172 252° West 424 488 26,400 1,680 Climbing Atlanta Center
11:01PM 33.3892 -85.6608 253° West 433 498 27,800 1,440 Climbing Atlanta Center
11:02PM 33.3475 -85.7994 250° West 447 514 29,300 1,740 Climbing Atlanta Center
11:03PM 33.3100 -85.9428 253° West 447 514 31,300 1,980 Climbing Atlanta Center
11:04PM 33.2700 -86.0811 251° West 447 514 33,300 1,800 Climbing Atlanta Center
11:05PM 33.2303 -86.2217 251° West 444 511 34,900 1,680 Climbing Atlanta Center
11:06PM 33.1922 -86.3547 251° West 439 505 36,700 1,740 Climbing Atlanta Center
11:07PM 33.1564 -86.4803 251° West 427 491 38,400 1,200 Climbing Atlanta Center
11:08PM 33.1225 -86.6108 253° West 413 475 39,100 660 Climbing Atlanta Center
11:09PM 33.0842 -86.7361 250° West 413 475 39,800 420 Climbing Atlanta Center
11:10PM 33.0481 -86.8639 251° West 413 475 40,000 60 Climbing Atlanta Center
11:11PM 33.0117 -86.9892 251° West 408 470 40,000  Level Atlanta Center
11:12PM 32.9731 -87.1192 251° West 408 470 40,000  Level Atlanta Center
11:13PM 32.9364 -87.2464 251° West 408 470 40,100  Climbing Atlanta Center
11:15PM 32.8600 -87.4883 249° West 414 476 40,000 -60 Descending Memphis Center
11:16PM 32.8233 -87.6183 251° West 414 476 40,000  Level Memphis Center
11:17PM 32.7864 -87.7478 251° West 414 476 40,000  Level Memphis Center
11:18PM 32.7472 -87.8750 250° West 414 476 40,000  Level Memphis Center
11:19PM 32.7122 -87.9994 252° West 409 471 40,000  Level Memphis Center
11:20PM 32.6747 -88.1261 251° West 409 471 40,000  Level Memphis Center
11:21PM 32.6353 -88.2506 249° West 409 471 40,000  Level Memphis Center
11:22PM 32.5975 -88.3747 250° West 409 471 40,100  Climbing Memphis Center
11:23PM 32.5619 -88.5011 252° West 409 471 40,000 -60 Descending Memphis Center
11:24PM 32.5219 -88.6253 249° West 409 471 40,000  Level Memphis Center
11:25PM 32.4839 -88.7492 250° West 409 471 40,000  Level Memphis Center
11:26PM 32.4458 -88.8728 250° West 409 471 40,100  Climbing Memphis Center
11:27PM 32.4078 -88.9967 250° West 409 471 40,100  Level Memphis Center
11:28PM 32.3692 -89.1203 250° West 409 471 40,100 -60 Level Memphis Center
11:29PM 32.3308 -89.2411 249° West 409 471 40,000 -60 Descending Memphis Center
11:30PM 32.2900 -89.3644 249° West 409 471 40,000  Level Memphis Center
11:31PM 32.2533 -89.4878 251° West 409 471 40,000  Level Memphis Center
11:32PM 32.2144 -89.6083 249° West 409 471 40,100  Climbing Memphis Center
11:33PM 32.1756 -89.7339 250° West 409 471 40,000 -60 Descending Memphis Center
11:34PM 32.1344 -89.8569 248° West 409 471 40,000  Level Memphis Center
11:35PM 32.0972 -89.9797 250° West 409 471 40,000  Level Memphis Center
11:36PM 32.0558 -90.1025 248° West 409 471 40,000  Level Memphis Center
11:37PM 32.0119 -90.2431 250° West 404 465 40,000  Level Houston Center
11:38PM 31.9719 -90.3669 249° West 405 466 40,000  Level Houston Center
11:39PM 31.9317 -90.4886 249° West 404 465 40,000  Level Houston Center
11:40PM 31.8933 -90.6122 250° West 406 467 40,000  Level Houston Center
11:41PM 31.8514 -90.7369 248° West 412 474 40,000  Level Houston Center
11:42PM 31.8108 -90.8631 249° West 411 473 40,000  Level Houston Center
11:43PM 31.7700 -90.9836 248° West 407 468 40,000  Level Houston Center
11:44PM 31.7286 -91.1103 249° West 409 471 40,100  Climbing Houston Center
11:45PM 31.6861 -91.2350 248° West 410 472 40,000 -60 Descending Houston Center
11:46PM 31.6453 -91.3586 249° West 407 468 40,000  Level Houston Center
11:47PM 31.6047 -91.4814 249° West 406 467 40,000  Level Houston Center
11:48PM 31.5647 -91.6047 249° West 405 466 40,100  Climbing Houston Center
11:49PM 31.5244 -91.7297 249° West 408 470 40,000 -60 Descending Houston Center
11:50PM 31.4828 -91.8522 248° West 406 467 40,000  Level Houston Center
11:51PM 31.4431 -91.9753 249° West 404 465 40,000  Level Houston Center
11:52PM 31.3969 -92.1047 247° West 404 465 40,000  Level Houston Center
11:53PM 31.3569 -92.2261 249° West 403 464 40,000  Level Houston Center
11:54PM 31.3167 -92.3478 249° West 402 463 40,000  Level Houston Center
11:55PM 31.2733 -92.4689 247° West 406 467 40,000  Level Houston Center
11:56PM 31.2339 -92.5922 250° West 406 467 40,000  Level Houston Center
11:57PM 31.1925 -92.7111 248° West 400 460 40,000  Level Houston Center
11:58PM 31.1553 -92.8361 251° West 406 467 40,000  Level Houston Center
11:59PM 31.1289 -92.9619 256° West 401 461 40,000  Level Houston Center
12:00AM 31.0986 -93.0900 255° West 409 471 40,000  Level Houston Center
12:01AM 31.0697 -93.2183 255° West 412 474 40,000  Level Houston Center
12:02AM 31.0400 -93.3472 255° West 416 479 40,000  Level Houston Center
12:03AM 31.0097 -93.4772 255° West 418 481 40,000  Level Houston Center
12:04AM 30.9800 -93.6053 255° West 415 478 40,000  Level Houston Center
12:05AM 30.9494 -93.7353 255° West 421 484 40,000  Level Houston Center
12:06AM 30.9186 -93.8644 254° West 418 481 40,000  Level Houston Center
12:07AM 30.8883 -93.9925 255° West 414 476 40,000  Level Houston Center
12:08AM 30.8581 -94.1189 254° West 410 472 40,000  Level Houston Center
12:09AM 30.8208 -94.2675 254° West 411 473 40,000  Level Houston Center
12:10AM 30.7897 -94.3986 255° West 414 476 40,000  Level Houston Center
12:11AM 30.7575 -94.5264 254° West 411 473 40,100  Climbing Houston Center
12:12AM 30.7322 -94.6306 254° West 413 475 40,000 -60 Descending Houston Center
12:13AM 30.7003 -94.7608 254° West 415 478 40,000  Level Houston Center
12:14AM 30.6694 -94.8922 255° West 419 482 40,000  Level Houston Center
12:15AM 30.6378 -95.0225 254° West 417 480 40,000  Level Houston Center
12:16AM 30.6061 -95.1511 254° West 413 475 40,000  Level Houston Center
12:17AM 30.5747 -95.2792 254° West 412 474 40,000  Level Houston Center
12:18AM 30.5417 -95.4061 253° West 411 473 40,000  Level Houston Center
12:19AM 30.5081 -95.5444 254° West 408 470 40,000  Level Houston Center
12:20AM 30.4764 -95.6700 254° West 409 471 40,000  Level Houston Center
12:21AM 30.4439 -95.7978 254° West 414 476 40,000  Level Houston Center
12:22AM 30.4108 -95.9239 253° West 413 475 40,000  Level Houston Center
12:23AM 30.3750 -96.0617 253° West 411 473 40,000  Level Houston Center
12:24AM 30.3475 -96.1683 253° West 410 472 40,000  Level Houston Center
12:25AM 30.3139 -96.2969 253° West 412 474 40,000  Level Houston Center
12:26AM 30.2803 -96.4267 253° West 413 475 40,000  Level Houston Center
12:27AM 30.2464 -96.5569 253° West 417 480 40,000  Level Houston Center
12:28AM 30.2114 -96.6878 253° West 420 483 40,000  Level Houston Center
12:29AM 30.1772 -96.8181 253° West 420 483 40,000 -720 Level Houston Center
12:31AM 30.1428 -96.9483 253° West 419 482 38,600 -2,100 Descending Houston Center
12:32AM 30.1089 -97.0756 253° West 413 475 35,800 -3,300 Descending Houston Center
12:33AM 30.0744 -97.2078 253° West 425 489 32,100 -3,780 Descending Houston Center
12:34AM 30.0375 -97.3461 253° West 448 516 28,300 -3,360 Descending Houston Center
12:35AM 30.0006 -97.4806 252° West 445 512 25,400 -2,880 Descending Houston Center
12:35AM 29.9867 -97.5342 253° West 439 505 24,300 -3,600 Descending Houston Center
12:36AM 29.9642 -97.6167 253° West 426 490 21,800 -4,440 Descending Houston Center
12:36AM 29.9481 -97.6769 253° West 421 484 19,900 -3,780 Descending Houston Center
12:37AM 29.9292 -97.7472 253° West 427 491 18,000 -3,060 Descending Houston Center
12:37AM 29.9125 -97.8069 252° West 426 490 16,800 -3,000 Descending Houston Center
12:38AM 29.8892 -97.8842 251° West 419 482 15,000 -2,820 Descending Houston Center
12:38AM 29.8694 -97.9281 243° Southwest 406 467 14,000 -2,040 Descending Houston Center
12:39AM 29.8414 -97.9964 245° Southwest 392 451 13,000 -900 Descending Houston Center
12:39AM 29.8231 -98.0375 243° Southwest 379 436 13,100 -300 Climbing Houston Center
12:40AM 29.7964 -98.1025 245° Southwest 370 426 12,700 -840 Descending Houston Center
12:40AM 29.7800 -98.1367 241° Southwest 335 386 12,300 -1,200 Descending Houston Center
12:41AM 29.7567 -98.1936 245° Southwest 321 369 11,500 -1,320 Descending Houston Center
12:41AM 29.7442 -98.2256 246° West 293 337 11,000 -1,920 Descending Houston Center
12:42AM 29.7322 -98.2778 255° West 283 326 9,600 -2,280 Descending Houston Center
12:42AM 29.7311 -98.3114 268° West 272 313 8,700 -2,460 Descending Houston Center
12:43AM 29.7306 -98.3639 269° West 271 312 7,100 -2,940 Descending Houston Center
12:43AM 29.7314 -98.4028 271° West 263 303 5,800 -2,700 Descending Houston Center
12:44AM 29.7317 -98.4478 270° West 264 304 4,400 -2,460 Descending Houston Center
12:44AM 29.7328 -98.4867 272° West 262 302 3,300 -1,320 Descending Houston Center
12:45AM 29.7347 -98.5289 273° West 256 295 3,100 -300 Descending Houston Center
12:45AM 29.7225 -98.5578 244° Southwest 222 255 3,000  Descending Houston Center
12:46AM 29.7019 -98.5775 220° Southwest 199 229 3,100 60 Climbing Houston Center
12:46AM 29.6861 -98.5981 228° Southwest 166 191 3,100  Level Houston Center
12:47AM 29.6667 -98.6156 218° Southwest 177 204 3,100  Level Houston Center
12:47AM 29.6472 -98.6100 166° South 163 188 3,100  Level Houston Center
12:48AM 29.6250 -98.5919 145° Southeast 168 193 3,100 -300 Level Houston Center
12:48AM 29.6128 -98.5756 131° Southeast 161 185 2,800 -600 Descending Houston Center
12:49AM 29.5992 -98.5572 130° Southeast 147 169 2,500 -600 Descending Houston Center
12:49AM 29.5869 -98.5450 139° Southeast 116 133 2,200 -600 Descending Houston Center
12:50AM 29.5767 -98.5283 125° Southeast 127 146 1,900 -720 Descending Houston Center
12:50AM 29.5631 -98.5144 138° Southeast 125 144 1,500 -720 Descending Houston Center
12:51AM 29.5536 -98.4978 123° Southeast 127 146 1,200 -600 Descending Houston Center
12:53AM 29.5333 -98.4667 16° North  Level FlightAware Approximate
01:00AM 29.5340 -98.4691 16° North  Level Estimated